sensor_id;sensor_type;location;lat;lon;timestamp;pressure;altitude;pressure_sealevel;temperature;humidity
13456;BME280;6800;50.940;6.940;2022-12-07T00:03:43;100975.41;;;16.60;44.32
13456;BME280;6800;50.940;6.940;2022-12-07T00:07:44;100974.31;;;16.74;43.91
13456;BME280;6800;50.940;6.940;2022-12-07T00:11:45;100975.41;;;16.60;44.10
13456;BME280;6800;50.940;6.940;2022-12-07T00:15:47;100972.44;;;16.30;44.45
13456;BME280;6800;50.940;6.940;2022-12-07T00:19:48;100968.69;;;16.67;44.11
13456;BME280;6800;50.940;6.940;2022-12-07T00:23:50;100972.66;;;16.62;44.00
13456;BME280;6800;50.940;6.940;2022-12-07T00:27:52;100973.66;;;16.37;44.36
13456;BME280;6800;50.940;6.940;2022-12-07T00:31:53;100964.88;;;16.25;44.44
13456;BME280;6800;50.940;6.940;2022-12-07T00:35:58;100962.75;;;16.41;44.13
13456;BME280;6800;50.940;6.940;2022-12-07T00:39:58;100954.94;;;16.18;44.44
13456;BME280;6800;50.940;6.940;2022-12-07T00:43:58;100956.03;;;16.26;44.46
13456;BME280;6800;50.940;6.940;2022-12-07T00:47:59;100957.47;;;16.30;44.58
13456;BME280;6800;50.940;6.940;2022-12-07T00:51:59;100949.13;;;16.48;44.32
13456;BME280;6800;50.940;6.940;2022-12-07T00:56:07;100942.50;;;16.42;44.65
13456;BME280;6800;50.940;6.940;2022-12-07T01:00:08;100945.00;;;16.21;45.19
13456;BME280;6800;50.940;6.940;2022-12-07T01:04:08;100947.84;;;16.53;44.30
13456;BME280;6800;50.940;6.940;2022-12-07T01:08:09;100944.97;;;16.56;44.27
13456;BME280;6800;50.940;6.940;2022-12-07T01:12:09;100946.38;;;16.49;44.00
13456;BME280;6800;50.940;6.940;2022-12-07T01:16:12;100950.47;;;16.53;44.06
13456;BME280;6800;50.940;6.940;2022-12-07T01:20:13;100947.72;;;16.66;44.30
13456;BME280;6800;50.940;6.940;2022-12-07T01:24:13;100955.97;;;16.61;44.09
13456;BME280;6800;50.940;6.940;2022-12-07T01:28:13;100961.72;;;16.55;44.52
13456;BME280;6800;50.940;6.940;2022-12-07T01:32:14;100960.41;;;16.50;44.43
13456;BME280;6800;50.940;6.940;2022-12-07T01:40:15;100949.16;;;16.59;43.98
13456;BME280;6800;50.940;6.940;2022-12-07T01:44:19;100949.34;;;15.64;46.21
13456;BME280;6800;50.940;6.940;2022-12-07T01:48:24;100947.34;;;16.59;44.21
13456;BME280;6800;50.940;6.940;2022-12-07T01:52:28;100946.41;;;16.60;43.73
13456;BME280;6800;50.940;6.940;2022-12-07T01:56:30;100953.31;;;16.50;44.08
13456;BME280;6800;50.940;6.940;2022-12-07T02:00:32;100950.47;;;16.53;43.93
13456;BME280;6800;50.940;6.940;2022-12-07T02:04:32;100934.06;;;16.72;43.58
13456;BME280;6800;50.940;6.940;2022-12-07T02:08:34;100932.63;;;16.68;43.99
13456;BME280;6800;50.940;6.940;2022-12-07T02:12:34;100927.72;;;16.63;43.38
13456;BME280;6800;50.940;6.940;2022-12-07T02:17:14;100926.88;;;16.52;44.16
13456;BME280;6800;50.940;6.940;2022-12-07T02:21:42;100931.47;;;16.26;44.65
13456;BME280;6800;50.940;6.940;2022-12-07T02:25:53;100927.25;;;16.58;44.43
13456;BME280;6800;50.940;6.940;2022-12-07T02:30:33;100922.88;;;16.46;44.21
13456;BME280;6800;50.940;6.940;2022-12-07T02:34:34;100925.41;;;16.48;44.34
13456;BME280;6800;50.940;6.940;2022-12-07T02:43:31;100923.63;;;16.59;44.00
13456;BME280;6800;50.940;6.940;2022-12-07T02:47:35;100911.78;;;16.54;44.31
13456;BME280;6800;50.940;6.940;2022-12-07T02:51:45;100913.06;;;16.37;44.34
13456;BME280;6800;50.940;6.940;2022-12-07T02:55:46;100911.13;;;16.28;44.37
13456;BME280;6800;50.940;6.940;2022-12-07T03:00:02;100904.69;;;16.43;44.33
13456;BME280;6800;50.940;6.940;2022-12-07T03:16:59;100925.16;;;16.28;44.71
13456;BME280;6800;50.940;6.940;2022-12-07T03:21:11;100921.22;;;16.45;44.37
13456;BME280;6800;50.940;6.940;2022-12-07T03:25:15;100924.13;;;16.53;44.25
13456;BME280;6800;50.940;6.940;2022-12-07T03:29:26;100916.44;;;16.72;44.00
13456;BME280;6800;50.940;6.940;2022-12-07T03:33:44;100920.59;;;16.41;44.38
13456;BME280;6800;50.940;6.940;2022-12-07T03:37:52;100917.00;;;16.42;44.61
13456;BME280;6800;50.940;6.940;2022-12-07T03:41:56;100920.78;;;16.62;44.25
13456;BME280;6800;50.940;6.940;2022-12-07T03:50:38;100923.91;;;16.56;44.17
13456;BME280;6800;50.940;6.940;2022-12-07T03:58:46;100910.41;;;16.48;44.18
13456;BME280;6800;50.940;6.940;2022-12-07T04:02:46;100913.69;;;16.52;44.37
13456;BME280;6800;50.940;6.940;2022-12-07T04:06:47;100915.09;;;16.45;44.23
13456;BME280;6800;50.940;6.940;2022-12-07T04:10:47;100916.22;;;16.53;44.24
13456;BME280;6800;50.940;6.940;2022-12-07T04:14:47;100918.31;;;16.48;44.20
13456;BME280;6800;50.940;6.940;2022-12-07T04:18:48;100921.59;;;16.52;44.27
13456;BME280;6800;50.940;6.940;2022-12-07T04:22:48;100919.28;;;16.36;44.60
13456;BME280;6800;50.940;6.940;2022-12-07T04:26:48;100918.81;;;16.42;44.06
13456;BME280;6800;50.940;6.940;2022-12-07T04:30:49;100910.72;;;16.56;44.14
13456;BME280;6800;50.940;6.940;2022-12-07T04:34:49;100911.16;;;16.39;44.62
13456;BME280;6800;50.940;6.940;2022-12-07T04:38:49;100906.31;;;16.33;44.62
13456;BME280;6800;50.940;6.940;2022-12-07T04:42:49;100910.50;;;16.24;43.88
13456;BME280;6800;50.940;6.940;2022-12-07T04:46:51;100900.97;;;16.34;44.34
13456;BME280;6800;50.940;6.940;2022-12-07T04:50:51;100902.41;;;16.38;44.56
13456;BME280;6800;50.940;6.940;2022-12-07T04:54:51;100910.16;;;16.29;44.46
13456;BME280;6800;50.940;6.940;2022-12-07T04:58:53;100913.28;;;16.34;44.17
13456;BME280;6800;50.940;6.940;2022-12-07T05:02:53;100910.88;;;16.31;44.63
13456;BME280;6800;50.940;6.940;2022-12-07T05:06:54;100909.47;;;16.38;44.45
13456;BME280;6800;50.940;6.940;2022-12-07T05:10:54;100914.59;;;16.28;44.36
13456;BME280;6800;50.940;6.940;2022-12-07T05:14:54;100913.59;;;16.18;44.64
13456;BME280;6800;50.940;6.940;2022-12-07T05:18:54;100910.72;;;16.10;44.93
13456;BME280;6800;50.940;6.940;2022-12-07T05:22:55;100915.44;;;16.29;44.22
13456;BME280;6800;50.940;6.940;2022-12-07T05:26:55;100906.69;;;16.39;44.22
13456;BME280;6800;50.940;6.940;2022-12-07T05:30:55;100906.59;;;16.41;44.27
13456;BME280;6800;50.940;6.940;2022-12-07T05:34:55;100913.25;;;16.23;44.47
13456;BME280;6800;50.940;6.940;2022-12-07T05:38:56;100921.31;;;16.32;44.28
13456;BME280;6800;50.940;6.940;2022-12-07T05:42:56;100919.00;;;16.17;44.67
13456;BME280;6800;50.940;6.940;2022-12-07T05:46:56;100916.25;;;16.18;44.42
13456;BME280;6800;50.940;6.940;2022-12-07T05:50:56;100905.94;;;15.70;45.99
13456;BME280;6800;50.940;6.940;2022-12-07T05:54:57;100901.00;;;15.54;46.11
13456;BME280;6800;50.940;6.940;2022-12-07T05:58:57;100900.03;;;15.90;45.54
13456;BME280;6800;50.940;6.940;2022-12-07T06:03:16;100896.59;;;16.00;45.44
13456;BME280;6800;50.940;6.940;2022-12-07T06:07:16;100894.84;;;15.77;46.14
13456;BME280;6800;50.940;6.940;2022-12-07T06:11:17;100904.31;;;15.80;45.87
13456;BME280;6800;50.940;6.940;2022-12-07T06:15:36;100914.00;;;15.79;46.27
13456;BME280;6800;50.940;6.940;2022-12-07T06:19:36;100910.53;;;15.55;46.46
13456;BME280;6800;50.940;6.940;2022-12-07T06:23:37;100907.31;;;15.51;47.20
13456;BME280;6800;50.940;6.940;2022-12-07T06:27:37;100916.38;;;15.71;46.47
13456;BME280;6800;50.940;6.940;2022-12-07T06:31:38;100916.53;;;15.57;46.46
13456;BME280;6800;50.940;6.940;2022-12-07T06:35:38;100916.88;;;15.52;46.83
13456;BME280;6800;50.940;6.940;2022-12-07T06:39:38;100912.03;;;15.70;46.67
13456;BME280;6800;50.940;6.940;2022-12-07T06:43:38;100908.19;;;15.63;46.94
13456;BME280;6800;50.940;6.940;2022-12-07T06:47:39;100919.41;;;15.89;46.30
13456;BME280;6800;50.940;6.940;2022-12-07T06:51:39;100923.00;;;15.88;46.45
13456;BME280;6800;50.940;6.940;2022-12-07T06:55:42;100928.88;;;15.91;46.24
13456;BME280;6800;50.940;6.940;2022-12-07T06:59:42;100929.13;;;15.88;45.59
13456;BME280;6800;50.940;6.940;2022-12-07T07:03:43;100928.91;;;15.44;47.54
13456;BME280;6800;50.940;6.940;2022-12-07T07:07:44;100926.31;;;15.79;46.37
13456;BME280;6800;50.940;6.940;2022-12-07T07:11:44;100924.44;;;15.92;45.91
13456;BME280;6800;50.940;6.940;2022-12-07T07:15:44;100932.09;;;15.84;46.49
13456;BME280;6800;50.940;6.940;2022-12-07T07:19:44;100941.97;;;15.80;46.49
13456;BME280;6800;50.940;6.940;2022-12-07T07:23:45;100933.03;;;15.83;46.51
13456;BME280;6800;50.940;6.940;2022-12-07T07:27:45;100934.72;;;15.84;46.51
13456;BME280;6800;50.940;6.940;2022-12-07T07:31:45;100925.75;;;15.86;46.66
13456;BME280;6800;50.940;6.940;2022-12-07T07:35:45;100930.22;;;16.08;46.08
13456;BME280;6800;50.940;6.940;2022-12-07T07:39:46;100932.56;;;15.89;46.11
13456;BME280;6800;50.940;6.940;2022-12-07T07:43:46;100939.06;;;15.96;46.03
13456;BME280;6800;50.940;6.940;2022-12-07T07:47:47;100935.19;;;15.89;46.20
13456;BME280;6800;50.940;6.940;2022-12-07T07:51:47;100934.69;;;16.07;45.74
13456;BME280;6800;50.940;6.940;2022-12-07T07:55:52;100933.63;;;16.21;45.77
13456;BME280;6800;50.940;6.940;2022-12-07T07:59:53;100938.78;;;16.33;45.72
13456;BME280;6800;50.940;6.940;2022-12-07T08:03:53;100943.94;;;16.35;45.52
13456;BME280;6800;50.940;6.940;2022-12-07T08:07:53;100936.53;;;16.40;45.46
13456;BME280;6800;50.940;6.940;2022-12-07T08:11:53;100942.63;;;16.40;44.99
13456;BME280;6800;50.940;6.940;2022-12-07T08:15:54;100941.31;;;16.46;45.16
13456;BME280;6800;50.940;6.940;2022-12-07T08:19:54;100939.81;;;16.55;43.95
13456;BME280;6800;50.940;6.940;2022-12-07T08:23:54;100943.94;;;16.24;44.82
13456;BME280;6800;50.940;6.940;2022-12-07T08:27:55;100944.41;;;16.29;45.02
13456;BME280;6800;50.940;6.940;2022-12-07T08:31:55;100939.81;;;16.55;44.37
13456;BME280;6800;50.940;6.940;2022-12-07T08:36:03;100948.63;;;16.42;44.72
13456;BME280;6800;50.940;6.940;2022-12-07T08:40:06;100944.88;;;16.69;43.95
13456;BME280;6800;50.940;6.940;2022-12-07T08:44:07;100952.66;;;16.70;43.99
13456;BME280;6800;50.940;6.940;2022-12-07T08:48:10;100945.22;;;16.64;43.77
13456;BME280;6800;50.940;6.940;2022-12-07T08:52:13;100944.59;;;17.05;43.52
13456;BME280;6800;50.940;6.940;2022-12-07T08:56:13;100945.19;;;17.20;42.73
13456;BME280;6800;50.940;6.940;2022-12-07T09:00:14;100944.06;;;17.22;43.26
13456;BME280;6800;50.940;6.940;2022-12-07T09:04:14;100945.91;;;16.88;43.93
13456;BME280;6800;50.940;6.940;2022-12-07T09:08:16;100938.94;;;17.74;42.63
13456;BME280;6800;50.940;6.940;2022-12-07T09:12:16;100939.47;;;18.10;42.03
13456;BME280;6800;50.940;6.940;2022-12-07T09:16:16;100939.66;;;18.18;42.13
13456;BME280;6800;50.940;6.940;2022-12-07T09:20:17;100942.69;;;17.92;41.65
13456;BME280;6800;50.940;6.940;2022-12-07T09:24:18;100939.63;;;17.76;41.73
13456;BME280;6800;50.940;6.940;2022-12-07T09:28:18;100942.25;;;17.87;41.54
13456;BME280;6800;50.940;6.940;2022-12-07T09:32:18;100955.16;;;17.70;41.36
13456;BME280;6800;50.940;6.940;2022-12-07T09:36:19;100955.22;;;17.37;41.88
13456;BME280;6800;50.940;6.940;2022-12-07T09:40:21;100958.88;;;17.67;41.95
13456;BME280;6800;50.940;6.940;2022-12-07T09:44:24;100940.25;;;17.69;41.28
13456;BME280;6800;50.940;6.940;2022-12-07T09:48:31;100946.53;;;17.57;41.35
13456;BME280;6800;50.940;6.940;2022-12-07T09:52:32;100951.69;;;17.58;41.75
13456;BME280;6800;50.940;6.940;2022-12-07T09:56:32;100945.69;;;17.88;41.37
13456;BME280;6800;50.940;6.940;2022-12-07T10:00:33;100939.38;;;17.37;42.17
13456;BME280;6800;50.940;6.940;2022-12-07T10:04:33;100935.06;;;18.20;41.14
13456;BME280;6800;50.940;6.940;2022-12-07T10:08:33;100935.41;;;18.26;40.89
13456;BME280;6800;50.940;6.940;2022-12-07T10:13:02;100931.16;;;18.14;40.74
13456;BME280;6800;50.940;6.940;2022-12-07T10:17:30;100927.59;;;18.25;40.22
13456;BME280;6800;50.940;6.940;2022-12-07T10:21:31;100915.72;;;18.40;38.87
13456;BME280;6800;50.940;6.940;2022-12-07T10:25:35;100919.94;;;18.01;40.79
13456;BME280;6800;50.940;6.940;2022-12-07T10:29:39;100915.31;;;18.14;40.33
13456;BME280;6800;50.940;6.940;2022-12-07T10:33:50;100914.78;;;17.79;40.56
13456;BME280;6800;50.940;6.940;2022-12-07T10:37:54;100911.06;;;18.02;40.28
13456;BME280;6800;50.940;6.940;2022-12-07T10:42:01;100909.78;;;18.17;39.99
13456;BME280;6800;50.940;6.940;2022-12-07T10:50:37;100896.44;;;19.28;38.28
13456;BME280;6800;50.940;6.940;2022-12-07T10:55:11;100892.56;;;19.90;37.98
13456;BME280;6800;50.940;6.940;2022-12-07T10:59:26;100889.19;;;20.16;35.87
13456;BME280;6800;50.940;6.940;2022-12-07T11:12:33;100870.75;;;18.51;38.63
13456;BME280;6800;50.940;6.940;2022-12-07T11:16:59;100864.38;;;18.53;38.79
13456;BME280;6800;50.940;6.940;2022-12-07T11:21:11;100857.28;;;18.63;38.54
13456;BME280;6800;50.940;6.940;2022-12-07T11:25:23;100851.22;;;17.91;40.07
13456;BME280;6800;50.940;6.940;2022-12-07T11:29:48;100851.78;;;17.95;39.95
13456;BME280;6800;50.940;6.940;2022-12-07T11:34:08;100833.25;;;18.76;38.40
13456;BME280;6800;50.940;6.940;2022-12-07T11:38:14;100846.41;;;19.06;38.26
13456;BME280;6800;50.940;6.940;2022-12-07T11:42:30;100834.50;;;18.42;39.41
13456;BME280;6800;50.940;6.940;2022-12-07T11:46:45;100833.13;;;18.47;39.27
13456;BME280;6800;50.940;6.940;2022-12-07T11:50:50;100834.19;;;18.35;38.98
13456;BME280;6800;50.940;6.940;2022-12-07T11:54:52;100833.16;;;17.97;39.57
13456;BME280;6800;50.940;6.940;2022-12-07T11:58:57;100834.59;;;17.80;39.72
13456;BME280;6800;50.940;6.940;2022-12-07T12:03:04;100834.34;;;17.83;39.71
13456;BME280;6800;50.940;6.940;2022-12-07T12:07:15;100831.56;;;17.64;40.30
13456;BME280;6800;50.940;6.940;2022-12-07T12:16:22;100825.59;;;17.92;39.29
13456;BME280;6800;50.940;6.940;2022-12-07T12:20:41;100828.66;;;17.67;39.70
13456;BME280;6800;50.940;6.940;2022-12-07T12:24:48;100816.97;;;17.49;40.68
13456;BME280;6800;50.940;6.940;2022-12-07T12:29:02;100823.38;;;17.35;40.64
13456;BME280;6800;50.940;6.940;2022-12-07T12:33:28;100821.13;;;17.62;39.87
13456;BME280;6800;50.940;6.940;2022-12-07T12:45:48;100807.84;;;17.94;40.12
13456;BME280;6800;50.940;6.940;2022-12-07T12:50:26;100804.94;;;17.97;39.54
13456;BME280;6800;50.940;6.940;2022-12-07T12:54:29;100802.47;;;17.75;39.80
13456;BME280;6800;50.940;6.940;2022-12-07T12:58:36;100796.66;;;17.81;39.35
13456;BME280;6800;50.940;6.940;2022-12-07T13:02:38;100797.16;;;17.54;39.90
13456;BME280;6800;50.940;6.940;2022-12-07T13:06:47;100794.03;;;17.81;39.96
13456;BME280;6800;50.940;6.940;2022-12-07T13:10:47;100791.28;;;17.92;39.48
13456;BME280;6800;50.940;6.940;2022-12-07T13:14:54;100790.75;;;17.68;40.00
13456;BME280;6800;50.940;6.940;2022-12-07T13:18:54;100790.66;;;17.58;39.88
13456;BME280;6800;50.940;6.940;2022-12-07T13:22:58;100779.59;;;17.64;40.19
13456;BME280;6800;50.940;6.940;2022-12-07T13:26:59;100781.72;;;17.50;40.20
13456;BME280;6800;50.940;6.940;2022-12-07T13:31:11;100779.13;;;17.80;39.36
13456;BME280;6800;50.940;6.940;2022-12-07T13:35:29;100773.59;;;17.83;39.26
13456;BME280;6800;50.940;6.940;2022-12-07T13:39:33;100760.72;;;17.69;39.74
13456;BME280;6800;50.940;6.940;2022-12-07T13:43:43;100755.97;;;17.93;39.76
13456;BME280;6800;50.940;6.940;2022-12-07T13:47:49;100756.13;;;17.71;39.79
13456;BME280;6800;50.940;6.940;2022-12-07T13:51:53;100747.50;;;17.89;39.49
13456;BME280;6800;50.940;6.940;2022-12-07T13:55:53;100754.03;;;17.95;39.44
13456;BME280;6800;50.940;6.940;2022-12-07T13:59:54;100745.78;;;17.79;39.69
13456;BME280;6800;50.940;6.940;2022-12-07T14:03:54;100747.09;;;17.94;39.52
13456;BME280;6800;50.940;6.940;2022-12-07T14:08:06;100744.47;;;17.73;39.30
13456;BME280;6800;50.940;6.940;2022-12-07T14:12:21;100743.56;;;17.84;39.36
13456;BME280;6800;50.940;6.940;2022-12-07T14:16:30;100732.66;;;17.98;39.55
13456;BME280;6800;50.940;6.940;2022-12-07T14:20:40;100733.44;;;17.89;39.19
13456;BME280;6800;50.940;6.940;2022-12-07T14:24:42;100726.41;;;17.99;39.17
13456;BME280;6800;50.940;6.940;2022-12-07T14:28:43;100727.16;;;17.80;39.28
13456;BME280;6800;50.940;6.940;2022-12-07T14:32:43;100727.84;;;17.82;39.10
13456;BME280;6800;50.940;6.940;2022-12-07T14:36:48;100732.81;;;17.76;39.96
13456;BME280;6800;50.940;6.940;2022-12-07T14:40:48;100722.34;;;17.65;40.10
13456;BME280;6800;50.940;6.940;2022-12-07T14:44:49;100708.44;;;17.63;39.58
13456;BME280;6800;50.940;6.940;2022-12-07T14:48:49;100702.94;;;17.75;40.17
13456;BME280;6800;50.940;6.940;2022-12-07T14:52:59;100704.84;;;17.64;40.12
13456;BME280;6800;50.940;6.940;2022-12-07T14:57:00;100700.84;;;17.49;40.20
13456;BME280;6800;50.940;6.940;2022-12-07T15:01:01;100700.09;;;17.58;40.07
13456;BME280;6800;50.940;6.940;2022-12-07T15:05:01;100700.84;;;17.49;40.60
13456;BME280;6800;50.940;6.940;2022-12-07T15:09:02;100693.31;;;17.44;41.17
13456;BME280;6800;50.940;6.940;2022-12-07T15:13:03;100694.81;;;17.58;40.94
13456;BME280;6800;50.940;6.940;2022-12-07T15:17:35;100694.69;;;17.39;41.33
13456;BME280;6800;50.940;6.940;2022-12-07T15:21:35;100698.22;;;17.28;41.93
13456;BME280;6800;50.940;6.940;2022-12-07T15:25:36;100709.13;;;17.03;42.68
13456;BME280;6800;50.940;6.940;2022-12-07T15:29:36;100703.94;;;16.49;42.78
13456;BME280;6800;50.940;6.940;2022-12-07T15:33:36;100706.03;;;16.77;43.10
13456;BME280;6800;50.940;6.940;2022-12-07T15:37:37;100700.69;;;16.57;44.37
13456;BME280;6800;50.940;6.940;2022-12-07T15:41:37;100688.53;;;16.22;43.79
13456;BME280;6800;50.940;6.940;2022-12-07T15:45:37;100693.38;;;16.49;44.72
13456;BME280;6800;50.940;6.940;2022-12-07T15:49:38;100690.53;;;16.41;45.03
13456;BME280;6800;50.940;6.940;2022-12-07T15:53:38;100689.84;;;16.39;45.41
13456;BME280;6800;50.940;6.940;2022-12-07T15:57:38;100680.00;;;16.41;45.37
13456;BME280;6800;50.940;6.940;2022-12-07T16:01:39;100675.03;;;16.16;44.84
13456;BME280;6800;50.940;6.940;2022-12-07T16:05:39;100681.63;;;16.10;45.62
13456;BME280;6800;50.940;6.940;2022-12-07T16:09:39;100675.16;;;16.03;45.35
13456;BME280;6800;50.940;6.940;2022-12-07T16:13:40;100681.63;;;16.10;45.39
13456;BME280;6800;50.940;6.940;2022-12-07T16:17:40;100679.25;;;15.85;46.31
13456;BME280;6800;50.940;6.940;2022-12-07T16:21:40;100679.03;;;15.88;45.81
13456;BME280;6800;50.940;6.940;2022-12-07T16:25:41;100671.59;;;15.82;46.02
13456;BME280;6800;50.940;6.940;2022-12-07T16:29:41;100680.47;;;15.81;46.42
13456;BME280;6800;50.940;6.940;2022-12-07T16:33:42;100681.66;;;15.88;46.37
13456;BME280;6800;50.940;6.940;2022-12-07T16:37:43;100692.06;;;16.01;46.46
13456;BME280;6800;50.940;6.940;2022-12-07T16:41:43;100678.63;;;15.93;46.07
13456;BME280;6800;50.940;6.940;2022-12-07T16:45:45;100676.50;;;15.98;46.43
13456;BME280;6800;50.940;6.940;2022-12-07T16:49:45;100668.38;;;15.90;46.19
13456;BME280;6800;50.940;6.940;2022-12-07T16:53:46;100663.09;;;15.90;46.14
13456;BME280;6800;50.940;6.940;2022-12-07T16:57:46;100662.09;;;16.13;45.68
13456;BME280;6800;50.940;6.940;2022-12-07T17:01:46;100659.75;;;15.88;45.61
13456;BME280;6800;50.940;6.940;2022-12-07T17:05:47;100659.25;;;16.16;45.15
13456;BME280;6800;50.940;6.940;2022-12-07T17:09:48;100649.28;;;16.19;44.66
13456;BME280;6800;50.940;6.940;2022-12-07T17:13:49;100653.47;;;16.22;44.09
13456;BME280;6800;50.940;6.940;2022-12-07T17:18:08;100654.41;;;16.32;44.11
13456;BME280;6800;50.940;6.940;2022-12-07T17:22:08;100649.25;;;16.30;43.53
13456;BME280;6800;50.940;6.940;2022-12-07T17:26:17;100652.25;;;16.26;43.64
13456;BME280;6800;50.940;6.940;2022-12-07T17:30:18;100646.69;;;16.40;43.85
13456;BME280;6800;50.940;6.940;2022-12-07T17:34:18;100645.75;;;16.41;43.55
13456;BME280;6800;50.940;6.940;2022-12-07T17:38:18;100636.91;;;16.31;43.69
13456;BME280;6800;50.940;6.940;2022-12-07T17:42:19;100629.81;;;16.42;44.13
13456;BME280;6800;50.940;6.940;2022-12-07T17:46:39;100632.22;;;16.46;43.54
13456;BME280;6800;50.940;6.940;2022-12-07T17:50:39;100627.31;;;16.41;43.47
13456;BME280;6800;50.940;6.940;2022-12-07T17:54:58;100620.81;;;16.45;43.47
13456;BME280;6800;50.940;6.940;2022-12-07T17:58:58;100620.69;;;16.47;43.67
13456;BME280;6800;50.940;6.940;2022-12-07T18:02:58;100620.63;;;16.37;44.15
13456;BME280;6800;50.940;6.940;2022-12-07T18:06:59;100619.84;;;16.46;43.61
13456;BME280;6800;50.940;6.940;2022-12-07T18:10:59;100612.59;;;16.38;43.93
13456;BME280;6800;50.940;6.940;2022-12-07T18:15:00;100611.38;;;16.54;43.63
13456;BME280;6800;50.940;6.940;2022-12-07T18:19:02;100609.31;;;16.46;43.32
13456;BME280;6800;50.940;6.940;2022-12-07T18:23:02;100605.19;;;16.64;43.64
13456;BME280;6800;50.940;6.940;2022-12-07T18:27:04;100604.13;;;16.67;43.54
13456;BME280;6800;50.940;6.940;2022-12-07T18:31:05;100592.41;;;16.80;43.24
13456;BME280;6800;50.940;6.940;2022-12-07T18:35:05;100604.22;;;16.65;44.12
13456;BME280;6800;50.940;6.940;2022-12-07T18:39:07;100593.50;;;16.78;43.74
13456;BME280;6800;50.940;6.940;2022-12-07T18:43:09;100589.91;;;16.79;43.75
13456;BME280;6800;50.940;6.940;2022-12-07T18:47:09;100586.47;;;16.67;43.85
13456;BME280;6800;50.940;6.940;2022-12-07T18:51:11;100576.97;;;16.76;43.76
13456;BME280;6800;50.940;6.940;2022-12-07T18:55:12;100581.47;;;16.64;43.57
13456;BME280;6800;50.940;6.940;2022-12-07T18:59:13;100580.88;;;16.61;43.54
13456;BME280;6800;50.940;6.940;2022-12-07T19:03:31;100578.38;;;16.59;43.66
13456;BME280;6800;50.940;6.940;2022-12-07T19:07:32;100576.75;;;16.47;44.14
13456;BME280;6800;50.940;6.940;2022-12-07T19:11:32;100576.44;;;16.61;43.69
13456;BME280;6800;50.940;6.940;2022-12-07T19:15:51;100571.94;;;16.52;43.98
13456;BME280;6800;50.940;6.940;2022-12-07T19:19:51;100574.31;;;16.76;43.23
13456;BME280;6800;50.940;6.940;2022-12-07T19:23:51;100560.91;;;16.58;43.59
13456;BME280;6800;50.940;6.940;2022-12-07T19:27:52;100566.19;;;16.26;44.13
13456;BME280;6800;50.940;6.940;2022-12-07T19:31:52;100560.75;;;16.39;43.71
13456;BME280;6800;50.940;6.940;2022-12-07T19:35:52;100562.56;;;16.59;43.60
13456;BME280;6800;50.940;6.940;2022-12-07T19:39:53;100555.00;;;16.66;43.45
13456;BME280;6800;50.940;6.940;2022-12-07T19:43:53;100552.84;;;16.39;43.72
13456;BME280;6800;50.940;6.940;2022-12-07T19:47:54;100558.81;;;16.41;43.44
13456;BME280;6800;50.940;6.940;2022-12-07T19:51:57;100554.69;;;16.48;43.59
13456;BME280;6800;50.940;6.940;2022-12-07T19:55:57;100551.84;;;16.40;43.72
13456;BME280;6800;50.940;6.940;2022-12-07T19:59:57;100548.38;;;16.51;43.62
13456;BME280;6800;50.940;6.940;2022-12-07T20:03:58;100541.31;;;16.40;43.31
13456;BME280;6800;50.940;6.940;2022-12-07T20:07:58;100546.41;;;16.32;43.81
13456;BME280;6800;50.940;6.940;2022-12-07T20:11:59;100535.53;;;16.46;43.16
13456;BME280;6800;50.940;6.940;2022-12-07T20:16:18;100528.47;;;16.47;43.25
13456;BME280;6800;50.940;6.940;2022-12-07T20:20:19;100533.22;;;16.32;43.65
13456;BME280;6800;50.940;6.940;2022-12-07T20:24:22;100539.56;;;16.29;43.78
13456;BME280;6800;50.940;6.940;2022-12-07T20:28:22;100533.97;;;16.23;43.19
13456;BME280;6800;50.940;6.940;2022-12-07T20:32:23;100534.91;;;16.01;43.76
13456;BME280;6800;50.940;6.940;2022-12-07T20:36:23;100532.91;;;15.94;43.87
13456;BME280;6800;50.940;6.940;2022-12-07T20:40:24;100524.75;;;15.97;44.38
13456;BME280;6800;50.940;6.940;2022-12-07T20:44:24;100527.34;;;16.08;43.57
13456;BME280;6800;50.940;6.940;2022-12-07T20:48:25;100523.94;;;16.17;43.58
13456;BME280;6800;50.940;6.940;2022-12-07T20:52:26;100524.03;;;15.95;43.73
13456;BME280;6800;50.940;6.940;2022-12-07T20:56:29;100520.41;;;16.07;43.68
13456;BME280;6800;50.940;6.940;2022-12-07T21:00:29;100517.13;;;16.14;43.38
13456;BME280;6800;50.940;6.940;2022-12-07T21:04:29;100525.63;;;16.18;43.43
13456;BME280;6800;50.940;6.940;2022-12-07T21:08:30;100518.31;;;16.21;43.50
13456;BME280;6800;50.940;6.940;2022-12-07T21:12:30;100522.59;;;16.22;43.31
13456;BME280;6800;50.940;6.940;2022-12-07T21:16:30;100512.41;;;16.29;43.33
13456;BME280;6800;50.940;6.940;2022-12-07T21:20:31;100514.34;;;15.95;43.82
13456;BME280;6800;50.940;6.940;2022-12-07T21:24:32;100502.56;;;15.79;44.02
13456;BME280;6800;50.940;6.940;2022-12-07T21:28:32;100503.56;;;15.98;44.01
13456;BME280;6800;50.940;6.940;2022-12-07T21:32:33;100503.19;;;16.03;43.36
13456;BME280;6800;50.940;6.940;2022-12-07T21:36:33;100497.69;;;15.95;43.68
13456;BME280;6800;50.940;6.940;2022-12-07T21:40:34;100502.72;;;15.98;43.38
13456;BME280;6800;50.940;6.940;2022-12-07T21:44:34;100490.84;;;15.72;44.12
13456;BME280;6800;50.940;6.940;2022-12-07T21:48:34;100486.56;;;16.02;43.38
13456;BME280;6800;50.940;6.940;2022-12-07T21:52:35;100488.09;;;16.05;43.39
13456;BME280;6800;50.940;6.940;2022-12-07T21:56:38;100487.16;;;15.95;43.33
13456;BME280;6800;50.940;6.940;2022-12-07T22:00:39;100477.69;;;15.72;44.15
13456;BME280;6800;50.940;6.940;2022-12-07T22:04:39;100471.22;;;15.76;43.83
13456;BME280;6800;50.940;6.940;2022-12-07T22:08:40;100477.09;;;15.79;43.63
13456;BME280;6800;50.940;6.940;2022-12-07T22:12:40;100473.06;;;15.96;43.43
13456;BME280;6800;50.940;6.940;2022-12-07T22:16:40;100470.81;;;16.12;43.15
13456;BME280;6800;50.940;6.940;2022-12-07T22:20:41;100475.28;;;16.11;42.98
13456;BME280;6800;50.940;6.940;2022-12-07T22:24:42;100475.22;;;15.91;43.14
13456;BME280;6800;50.940;6.940;2022-12-07T22:28:43;100470.28;;;15.97;43.24